Time;durP1;ratioP1;P1;durP2;ratioP2;P2;SDS_P1;SDS_P2;PMS_P1;PMS_P2;Temp;Humidity;BMP_temperature;BMP_pressure;BME280_temperature;BME280_humidity;BME280_pressure;Samples;Min_cycle;Max_cycle;Signal;HPM_P1;HPM_P2
2022/11/16 00:02:13;;;;;;;;;;;8.10;99.90;;;;;;5044726;28;20056;-57
2022/11/16 00:04:40;;;;;;;29.00;17.13;;;8.10;99.90;;;;;;5040995;28;19925;-55
2022/11/16 00:07:07;;;;;;;23.83;16.67;;;8.10;99.90;;;;;;5043110;28;20145;-57
2022/11/16 00:09:34;;;;;;;21.60;15.93;;;8.10;99.90;;;;;;5043289;28;20045;-57
2022/11/16 00:12:02;;;;;;;;;;;8.10;99.90;;;;;;5041915;28;20607;-56
2022/11/16 00:14:32;;;;;;;24.65;16.92;;;8.10;99.90;;;;;;5042124;28;19997;-56
2022/11/16 00:17:00;;;;;;;21.42;14.95;;;8.10;99.90;;;;;;5047450;28;20064;-55
2022/11/16 00:19:27;;;;;;;24.80;16.50;;;8.10;99.90;;;;;;5040849;28;20123;-55
2022/11/16 00:21:54;;;;;;;21.88;16.42;;;8.10;99.90;;;;;;5041568;28;20048;-56
2022/11/16 00:24:22;;;;;;;20.40;14.23;;;8.10;99.90;;;;;;5042845;28;20128;-57
2022/11/16 00:26:51;;;;;;;17.48;13.32;;;8.10;99.90;;;;;;5043444;28;20668;-55
2022/11/16 00:29:21;;;;;;;22.10;15.80;;;8.00;99.90;;;;;;5041395;28;20072;-56
2022/11/16 00:31:49;;;;;;;24.52;15.85;;;8.00;99.90;;;;;;5038584;28;20055;-56
2022/11/16 00:34:17;;;;;;;24.15;15.07;;;8.10;99.90;;;;;;5041432;28;20064;-55
2022/11/16 00:36:44;;;;;;;23.08;16.85;;;8.00;99.90;;;;;;5040895;28;20076;-56
2022/11/16 00:39:13;;;;;;;28.55;15.95;;;8.00;99.90;;;;;;5040506;28;20126;-55
2022/11/16 00:41:40;;;;;;;20.05;14.90;;;8.00;99.90;;;;;;5039867;28;20044;-55
2022/11/16 00:44:08;;;;;;;20.48;15.25;;;8.00;99.90;;;;;;5041741;28;20061;-54
2022/11/16 00:46:35;;;;;;;22.08;15.02;;;7.90;99.90;;;;;;5039037;28;20044;-55
2022/11/16 00:49:04;;;;;;;23.60;16.38;;;7.90;99.90;;;;;;5036877;28;20065;-53
2022/11/16 00:51:31;;;;;;;29.25;17.52;;;7.90;99.90;;;;;;5042200;28;20047;-54
2022/11/16 00:53:58;;;;;;;21.98;16.15;;;7.90;99.90;;;;;;5040946;28;20040;-53
2022/11/16 00:56:25;;;;;;;26.85;15.90;;;7.80;99.90;;;;;;5039286;28;20036;-54
2022/11/16 00:58:52;;;;;;;22.58;15.90;;;7.80;99.90;;;;;;5039837;28;20114;-55
2022/11/16 01:01:19;;;;;;;30.10;16.55;;;7.80;99.90;;;;;;5036018;28;20040;-54
2022/11/16 01:03:46;;;;;;;;;;;7.80;99.90;;;;;;5041976;28;20684;-54
2022/11/16 01:06:14;;;;;;;25.92;16.48;;;7.80;99.90;;;;;;5039586;28;20005;-52
2022/11/16 01:08:42;;;;;;;25.67;17.17;;;7.70;99.90;;;;;;5042477;28;20060;-53
2022/11/16 01:14:02;;;;;;;23.40;13.10;;;7.70;99.90;;;;;;5049489;28;20052;-53
2022/11/16 01:16:29;;;;;;;20.15;14.25;;;7.70;99.90;;;;;;5041532;28;20068;-54
2022/11/16 01:18:56;;;;;;;23.67;14.25;;;7.70;99.90;;;;;;5038762;28;20557;-53
2022/11/16 01:21:24;;;;;;;24.58;14.32;;;7.70;99.90;;;;;;5042388;28;20053;-53
2022/11/16 01:23:51;;;;;;;;;;;7.70;99.90;;;;;;5041764;28;20065;-54
2022/11/16 01:26:18;;;;;;;15.23;11.57;;;7.70;99.90;;;;;;5041093;28;20036;-52
2022/11/16 01:28:44;;;;;;;;;;;7.70;99.90;;;;;;5048054;28;20612;-52
2022/11/16 01:31:12;;;;;;;14.50;10.90;;;7.70;99.90;;;;;;5039989;28;19947;-51
2022/11/16 01:33:40;;;;;;;14.27;11.05;;;7.70;99.90;;;;;;5039193;28;20846;-53
2022/11/16 01:36:14;;;;;;;14.43;9.57;;;7.70;99.90;;;;;;5045483;28;20049;-55
2022/11/16 01:38:46;;;;;;;15.02;10.70;;;7.70;99.90;;;;;;5041744;28;20040;-53
2022/11/16 01:41:21;;;;;;;12.20;9.30;;;7.70;99.90;;;;;;5038622;28;20133;-54
2022/11/16 01:44:01;;;;;;;15.02;8.82;;;7.70;99.90;;;;;;5043098;28;20052;-53
2022/11/16 01:46:34;;;;;;;11.52;8.55;;;7.70;99.90;;;;;;5040850;28;20426;-55
2022/11/16 01:49:13;;;;;;;11.20;8.45;;;7.70;99.90;;;;;;5042496;28;20056;-53
2022/11/16 01:51:43;;;;;;;13.40;8.07;;;7.70;99.90;;;;;;5048660;28;20116;-54
2022/11/16 01:54:12;;;;;;;12.05;9.35;;;7.70;99.90;;;;;;5040735;28;20059;-55
2022/11/16 01:56:51;;;;;;;13.95;8.65;;;7.70;99.90;;;;;;5036911;28;20033;-51
2022/11/16 01:59:29;;;;;;;18.35;10.63;;;7.70;99.90;;;;;;5057000;28;20115;-54
2022/11/16 02:02:01;;;;;;;17.20;10.60;;;7.80;99.90;;;;;;5047343;28;20138;-52
2022/11/16 02:04:29;;;;;;;12.63;10.43;;;7.80;99.90;;;;;;5017670;28;20053;-54
2022/11/16 02:07:05;;;;;;;;;;;7.80;99.90;;;;;;5039545;28;20048;-54
2022/11/16 02:09:57;;;;;;;13.55;10.45;;;7.80;99.90;;;;;;5048522;28;20009;-55
2022/11/16 02:12:38;;;;;;;17.13;11.13;;;7.80;99.90;;;;;;5048098;28;20062;-53
2022/11/16 02:15:08;;;;;;;15.25;10.35;;;7.80;99.90;;;;;;5055459;28;20802;-52
2022/11/16 02:18:21;;;;;;;11.23;8.27;;;7.70;99.90;;;;;;5038929;28;20075;-54
2022/11/16 02:20:52;;;;;;;11.43;8.13;;;7.70;99.90;;;;;;4969465;28;20057;-53
2022/11/16 02:23:50;;;;;;;12.50;8.98;;;7.70;99.90;;;;;;5029719;28;20048;-54
2022/11/16 02:26:35;;;;;;;10.70;7.85;;;7.70;99.90;;;;;;5040998;28;20061;-54
2022/11/16 02:29:36;;;;;;;17.35;9.77;;;7.80;99.90;;;;;;5040780;28;20072;-56
2022/11/16 02:32:17;;;;;;;13.68;9.25;;;7.80;99.90;;;;;;5001980;28;20506;-54
2022/11/16 02:35:01;;;;;;;14.85;9.43;;;7.80;99.90;;;;;;5039359;28;20049;-52
2022/11/16 02:37:34;;;;;;;18.33;10.13;;;7.80;99.90;;;;;;5038674;28;20715;-53
2022/11/16 02:40:06;;;;;;;11.45;7.85;;;7.80;99.90;;;;;;5051648;28;20033;-54
2022/11/16 02:42:53;;;;;;;11.23;8.95;;;7.80;99.90;;;;;;5041474;28;20052;-53
2022/11/16 02:45:24;;;;;;;12.73;8.10;;;7.80;99.90;;;;;;5040903;28;20118;-51
2022/11/16 02:47:55;;;;;;;10.23;7.60;;;7.80;99.90;;;;;;5037282;28;20148;-53
2022/11/16 02:50:22;;;;;;;9.48;7.68;;;7.80;99.90;;;;;;5041390;28;20515;-53
2022/11/16 02:52:51;;;;;;;9.00;7.15;;;7.80;99.90;;;;;;5047635;28;20330;-54
2022/11/16 02:55:18;;;;;;;11.30;8.02;;;7.90;99.90;;;;;;5041765;28;20047;-55
2022/11/16 02:57:48;;;;;;;9.32;6.93;;;7.90;99.90;;;;;;5044320;28;20151;-52
2022/11/16 03:00:20;;;;;;;11.52;6.90;;;7.90;99.90;;;;;;5047586;28;20045;-52
2022/11/16 03:03:15;;;;;;;12.82;9.52;;;7.90;99.90;;;;;;5052638;28;20053;-53
2022/11/16 03:05:50;;;;;;;14.48;8.80;;;7.90;99.90;;;;;;5037907;28;20210;-55
2022/11/16 03:08:30;;;;;;;11.43;7.53;;;7.90;99.90;;;;;;5056892;28;20049;-55
2022/11/16 03:14:04;;;;;;;11.25;7.28;;;7.90;99.90;;;;;;5042066;28;20079;-54
2022/11/16 03:16:36;;;;;;;10.20;7.05;;;8.00;99.90;;;;;;5044020;28;20041;-53
2022/11/16 03:19:07;;;;;;;9.48;7.00;;;8.00;99.90;;;;;;5050293;28;20041;-51
2022/11/16 03:21:44;;;;;;;10.20;7.25;;;8.00;99.90;;;;;;5039379;28;20123;-54
2022/11/16 03:24:12;;;;;;;9.40;5.60;;;8.00;99.90;;;;;;5051853;28;20506;-52
2022/11/16 03:26:49;;;;;;;8.75;5.60;;;8.00;99.90;;;;;;5050073;28;20952;-54
2022/11/16 03:29:26;;;;;;;7.85;5.05;;;8.00;99.90;;;;;;5048455;28;20784;-53
2022/11/16 03:32:02;;;;;;;5.97;5.07;;;8.00;99.90;;;;;;5045887;28;20041;-54
2022/11/16 03:34:34;;;;;;;7.03;4.95;;;8.00;99.90;;;;;;5037652;28;20051;-54
2022/11/16 03:37:04;;;;;;;7.75;5.78;;;8.00;99.90;;;;;;5050136;28;20179;-54
2022/11/16 03:39:37;;;;;;;9.52;5.22;;;8.00;99.90;;;;;;5043778;28;20049;-54
2022/11/16 03:42:09;;;;;;;6.65;5.57;;;8.00;99.90;;;;;;5050398;28;20161;-53
2022/11/16 03:44:37;;;;;;;9.35;6.72;;;8.00;99.90;;;;;;5042667;28;20048;-54
2022/11/16 03:47:05;;;;;;;10.38;7.50;;;8.00;99.90;;;;;;5040463;28;20048;-52
2022/11/16 03:49:32;;;;;;;10.77;7.05;;;8.00;99.90;;;;;;5048855;28;20048;-53
2022/11/16 03:51:59;;;;;;;8.35;6.63;;;8.00;99.90;;;;;;5043267;28;20136;-52
2022/11/16 03:54:27;;;;;;;10.20;7.22;;;8.00;99.90;;;;;;5043619;28;20033;-54
2022/11/16 03:56:54;;;;;;;;;;;8.00;99.90;;;;;;5042579;28;20436;-56
2022/11/16 03:59:21;;;;;;;10.40;8.00;;;8.00;99.90;;;;;;5046637;28;19931;-51
2022/11/16 04:01:48;;;;;;;;;;;8.00;99.90;;;;;;5043396;28;20624;-52
2022/11/16 04:24:11;;;;;;;8.95;6.60;;;8.00;99.90;;;;;;5041925;28;19924;-53
2022/11/16 04:28:12;;;;;;;9.10;5.75;;;8.10;99.90;;;;;;5042596;28;20079;-50
2022/11/16 04:29:12;;;;;;;7.18;5.53;;;8.10;99.90;;;;;;5045570;28;20049;-53
2022/11/16 04:40:10;;;;;;;5.25;4.55;;;8.10;99.90;;;;;;5050547;28;20060;-51
2022/11/16 04:42:37;;;;;;;6.38;4.50;;;8.00;99.90;;;;;;5041400;28;20045;-53
2022/11/16 04:47:52;;;;;;;4.82;3.75;;;8.00;99.90;;;;;;5039934;28;20040;-54
2022/11/16 04:50:22;;;;;;;8.13;4.30;;;8.00;99.90;;;;;;5044733;28;20064;-53
2022/11/16 04:52:50;;;;;;;8.40;4.00;;;8.00;99.90;;;;;;5041447;28;20619;-54
2022/11/16 04:55:17;;;;;;;6.80;3.15;;;8.00;99.90;;;;;;5038673;28;20045;-52
2022/11/16 04:57:45;;;;;;;3.60;2.70;;;8.00;99.90;;;;;;5036055;28;20847;-54
2022/11/16 05:00:14;;;;;;;3.40;2.63;;;8.00;99.90;;;;;;5034690;28;20040;-53
2022/11/16 05:02:41;;;;;;;2.53;2.33;;;8.00;99.90;;;;;;5036780;28;20049;-52
2022/11/16 05:05:08;;;;;;;;;;;8.00;99.90;;;;;;5050471;28;21098;-51
2022/11/16 05:07:37;;;;;;;2.78;2.10;;;8.00;99.90;;;;;;5039060;28;20003;-53
2022/11/16 05:10:16;;;;;;;3.85;2.42;;;8.00;99.90;;;;;;5049736;28;20796;-53
2022/11/16 05:12:43;;;;;;;3.28;2.55;;;8.00;99.90;;;;;;5047988;28;20052;-52
2022/11/16 05:15:10;;;;;;;;;;;8.00;99.90;;;;;;5041546;28;20038;-54
2022/11/16 05:17:38;;;;;;;3.53;2.17;;;8.00;99.90;;;;;;5049335;28;19930;-53
2022/11/16 05:23:01;;;;;;;5.70;2.40;;;7.90;99.90;;;;;;5048441;28;20040;-52
2022/11/16 05:25:32;;;;;;;2.60;2.13;;;7.90;99.90;;;;;;5039156;28;20056;-51
2022/11/16 05:28:05;;;;;;;2.08;1.80;;;7.90;99.90;;;;;;5036740;28;20091;-53
2022/11/16 05:30:35;;;;;;;2.72;1.88;;;7.80;99.90;;;;;;5041788;28;20041;-53
2022/11/16 05:33:03;;;;;;;2.15;1.90;;;7.90;99.90;;;;;;5035162;28;20060;-53
2022/11/16 05:35:33;;;;;;;3.35;1.83;;;7.80;99.90;;;;;;5040890;28;20413;-53
2022/11/16 05:38:00;;;;;;;1.95;1.80;;;7.80;99.90;;;;;;5040374;28;20048;-52
2022/11/16 05:40:29;;;;;;;2.67;1.70;;;7.80;99.90;;;;;;5037109;28;20047;-52
2022/11/16 05:42:57;;;;;;;1.70;1.52;;;7.70;99.90;;;;;;5040160;28;20072;-53
2022/11/16 05:45:27;;;;;;;1.67;1.55;;;7.70;99.90;;;;;;5048509;28;20099;-54
2022/11/16 05:47:54;;;;;;;2.13;1.92;;;7.70;99.90;;;;;;5034910;28;20106;-53
2022/11/16 05:50:21;;;;;;;2.25;1.70;;;7.70;99.90;;;;;;5036162;28;20040;-52
2022/11/16 05:53:01;;;;;;;2.22;1.77;;;7.70;99.90;;;;;;5042061;28;20060;-54
2022/11/16 05:55:27;;;;;;;;;;;7.70;99.90;;;;;;5047919;28;20099;-52
2022/11/16 05:57:55;;;;;;;1.38;1.30;;;7.70;99.90;;;;;;5048560;28;20019;-51
2022/11/16 06:00:21;;;;;;;;;;;7.70;99.90;;;;;;5040244;28;20046;-53
2022/11/16 06:02:51;;;;;;;4.68;2.10;;;7.70;99.90;;;;;;5036757;28;19935;-54
2022/11/16 06:05:22;;;;;;;2.42;1.60;;;7.70;99.90;;;;;;5039065;28;20151;-54
2022/11/16 06:07:49;;;;;;;1.58;1.38;;;7.70;99.90;;;;;;5035082;28;20814;-53
2022/11/16 06:10:16;;;;;;;1.67;1.27;;;7.70;99.90;;;;;;5029750;28;20048;-53
2022/11/16 06:12:46;;;;;;;4.70;1.85;;;7.70;99.90;;;;;;5047808;28;20161;-52
2022/11/16 06:15:13;;;;;;;;;;;7.70;99.90;;;;;;5048150;28;20577;-52
2022/11/16 06:17:40;;;;;;;1.77;1.67;;;7.70;99.90;;;;;;5038106;28;19932;-53
2022/11/16 06:20:09;;;;;;;4.35;1.60;;;7.70;99.90;;;;;;5031306;28;20052;-51
2022/11/16 06:22:37;;;;;;;1.70;1.45;;;7.70;99.90;;;;;;5036904;28;20621;-51
2022/11/16 06:25:05;;;;;;;;;;;7.70;99.90;;;;;;5041591;28;20130;-53
2022/11/16 06:27:39;;;;;;;2.13;1.60;;;7.70;99.90;;;;;;5047225;28;19925;-54
2022/11/16 06:30:08;;;;;;;3.13;2.47;;;7.70;99.90;;;;;;5039574;28;20457;-55
2022/11/16 06:32:35;;;;;;;1.40;1.30;;;7.70;99.90;;;;;;5045925;28;20044;-53
2022/11/16 06:35:03;;;;;;;2.22;1.40;;;7.70;99.90;;;;;;5046117;28;20041;-52
2022/11/16 06:37:31;;;;;;;1.52;1.00;;;7.70;99.90;;;;;;5047646;28;20767;-52
2022/11/16 06:39:58;;;;;;;5.43;1.58;;;7.70;99.90;;;;;;5039729;28;20050;-53
2022/11/16 06:42:25;;;;;;;2.17;1.60;;;7.70;99.90;;;;;;5047852;28;20824;-53
2022/11/16 06:44:53;;;;;;;4.32;1.20;;;7.80;99.90;;;;;;5055739;28;20510;-54
2022/11/16 06:47:25;;;;;;;1.38;1.30;;;7.80;99.90;;;;;;5046556;28;20504;-53
2022/11/16 06:49:53;;;;;;;3.88;1.52;;;7.80;99.90;;;;;;5043433;28;20574;-51
2022/11/16 06:52:22;;;;;;;2.20;1.40;;;7.80;99.90;;;;;;5041759;28;20056;-52
2022/11/16 06:54:49;;;;;;;1.45;1.35;;;7.80;99.90;;;;;;5044686;28;20128;-53
2022/11/16 06:57:16;;;;;;;1.60;1.50;;;7.90;99.90;;;;;;5049813;28;20810;-52
2022/11/16 06:59:43;;;;;;;1.83;1.50;;;7.90;99.90;;;;;;5051010;28;20039;-50
2022/11/16 07:02:11;;;;;;;1.63;1.20;;;7.90;99.90;;;;;;5044900;28;20040;-53
2022/11/16 07:04:39;;;;;;;2.83;1.73;;;7.90;99.90;;;;;;5045042;28;20040;-52
2022/11/16 07:07:05;;;;;;;;;;;7.90;99.90;;;;;;5052185;28;20055;-52
2022/11/16 07:09:36;;;;;;;2.75;1.65;;;7.90;99.90;;;;;;5041068;28;19931;-50
2022/11/16 07:12:03;;;;;;;2.22;1.90;;;8.00;99.90;;;;;;5045085;28;20048;-52
2022/11/16 07:14:35;;;;;;;2.13;1.55;;;8.00;99.90;;;;;;5056289;28;20040;-52
2022/11/16 07:17:03;;;;;;;3.95;2.08;;;8.00;99.90;;;;;;5049787;28;20052;-51
2022/11/16 07:19:35;;;;;;;2.92;2.00;;;8.00;99.90;;;;;;5043596;28;20419;-55
2022/11/16 07:22:03;;;;;;;5.57;1.98;;;8.10;99.90;;;;;;5042174;28;20051;-52
2022/11/16 07:24:30;;;;;;;4.38;2.90;;;8.10;99.90;;;;;;5050335;28;20044;-52
2022/11/16 07:26:57;;;;;;;2.63;1.90;;;8.20;99.90;;;;;;5041206;28;20051;-52
2022/11/16 07:29:26;;;;;;;3.00;1.73;;;8.20;99.90;;;;;;5042359;28;20051;-50
2022/11/16 07:32:08;;;;;;;3.03;1.85;;;8.20;99.90;;;;;;5050350;28;20048;-50
2022/11/16 07:34:58;;;;;;;3.13;1.75;;;8.30;99.90;;;;;;5049161;28;20158;-52
2022/11/16 07:37:26;;;;;;;3.70;2.40;;;8.40;99.90;;;;;;5049362;28;20044;-53
2022/11/16 07:39:53;;;;;;;2.20;1.70;;;8.40;99.90;;;;;;5042230;28;20032;-52
2022/11/16 07:42:22;;;;;;;1.98;1.77;;;8.40;99.90;;;;;;5041935;28;20055;-50
2022/11/16 07:45:06;;;;;;;2.33;1.85;;;8.40;99.90;;;;;;5048347;28;20746;-53
2022/11/16 07:47:37;;;;;;;2.88;2.10;;;8.50;99.90;;;;;;5050170;28;20060;-51
2022/11/16 07:50:07;;;;;;;3.67;2.58;;;8.50;99.90;;;;;;5056910;28;20044;-49
2022/11/16 07:52:34;;;;;;;4.25;2.58;;;8.60;99.90;;;;;;5049097;28;20044;-52
2022/11/16 07:55:17;;;;;;;2.75;2.40;;;8.60;99.90;;;;;;5047040;28;20052;-52
2022/11/16 07:57:46;;;;;;;5.45;2.80;;;8.70;99.90;;;;;;5046113;28;20793;-53
2022/11/16 08:00:19;;;;;;;3.40;2.50;;;8.70;99.90;;;;;;5043511;28;20135;-53
2022/11/16 08:02:56;;;;;;;2.90;2.50;;;8.80;99.90;;;;;;5043747;28;20044;-52
2022/11/16 08:05:24;;;;;;;4.85;2.60;;;8.90;99.90;;;;;;5041296;28;20059;-62
2022/11/16 08:07:50;;;;;;;;;;;8.90;99.90;;;;;;5054299;28;20048;-51
2022/11/16 08:10:22;;;;;;;3.63;2.47;;;9.00;99.90;;;;;;5041167;28;19928;-50
2022/11/16 08:12:49;;;;;;;3.55;2.40;;;9.10;99.90;;;;;;5045233;28;20068;-51
2022/11/16 08:15:17;;;;;;;7.20;2.40;;;9.30;99.90;;;;;;5046156;28;20145;-52
2022/11/16 08:17:44;;;;;;;2.50;2.20;;;9.40;99.90;;;;;;5053773;28;20628;-48
2022/11/16 08:20:12;;;;;;;4.88;2.00;;;9.60;99.90;;;;;;5052298;28;20123;-53
2022/11/16 08:23:34;;;;;;;3.60;2.28;;;9.80;99.90;;;;;;5097310;27;20618;-49
2022/11/16 08:26:05;;;;;;;2.58;2.03;;;9.90;99.90;;;;;;5095437;28;20075;-49
2022/11/16 08:28:33;;;;;;;3.85;2.35;;;9.90;99.90;;;;;;5097495;28;20035;-54
2022/11/16 08:31:25;;;;;;;4.05;1.90;;;10.00;99.90;;;;;;5096713;27;20862;-53
2022/11/16 08:33:59;;;;;;;3.45;2.55;;;10.00;99.90;;;;;;5093947;28;20044;-52
2022/11/16 08:36:27;;;;;;;2.50;2.25;;;10.00;99.90;;;;;;5091604;28;20137;-51
2022/11/16 08:38:54;;;;;;;2.28;2.08;;;10.00;99.90;;;;;;5094946;28;20178;-53
2022/11/16 08:41:22;;;;;;;3.38;1.85;;;9.90;99.90;;;;;;5092269;28;20054;-55
2022/11/16 08:43:49;;;;;;;3.97;1.55;;;9.90;99.90;;;;;;5096975;28;20656;-54
2022/11/16 08:46:18;;;;;;;3.92;2.10;;;9.80;99.90;;;;;;5094737;27;20192;-53
2022/11/16 08:48:55;;;;;;;1.85;1.75;;;9.80;99.90;;;;;;5091706;28;20043;-52
2022/11/16 08:51:23;;;;;;;4.05;2.13;;;9.80;99.90;;;;;;5079346;28;20666;-52
2022/11/16 08:53:58;;;;;;;3.67;1.98;;;9.80;99.90;;;;;;5094161;28;20092;-52
2022/11/16 08:56:28;;;;;;;5.68;2.33;;;9.80;99.90;;;;;;5093292;28;20756;-51
2022/11/16 08:58:55;;;;;;;3.00;2.25;;;9.80;99.90;;;;;;5096640;28;20067;-52
2022/11/16 09:01:27;;;;;;;5.60;1.90;;;9.70;99.90;;;;;;5078325;28;20114;-52
2022/11/16 09:03:55;;;;;;;2.63;2.15;;;9.80;99.90;;;;;;5093745;28;20039;-49
2022/11/16 09:06:23;;;;;;;2.90;2.60;;;9.80;99.90;;;;;;5093799;28;20563;-52
2022/11/16 09:08:50;;;;;;;5.93;2.13;;;9.80;99.90;;;;;;5094735;28;20155;-53
2022/11/16 09:11:20;;;;;;;7.38;2.30;;;9.90;99.90;;;;;;5093300;28;20039;-53
2022/11/16 09:13:49;;;;;;;7.03;2.38;;;10.00;99.90;;;;;;5094816;28;20134;-53
2022/11/16 09:16:19;;;;;;;4.03;2.10;;;10.10;99.90;;;;;;5099456;27;20047;-53
2022/11/16 09:18:50;;;;;;;4.97;2.65;;;10.20;99.90;;;;;;5091990;28;20317;-54
2022/11/16 09:21:25;;;;;;;8.23;2.20;;;10.30;99.90;;;;;;5076566;28;20044;-57
2022/11/16 09:23:53;;;;;;;3.17;1.92;;;10.30;99.90;;;;;;5092371;28;20044;-59
2022/11/16 09:26:21;;;;;;;5.97;1.92;;;10.30;99.90;;;;;;5090630;28;20043;-62
2022/11/16 09:28:56;;;;;;;6.45;2.03;;;10.30;99.90;;;;;;5091752;28;20573;-53
2022/11/16 09:31:28;;;;;;;1.85;1.60;;;10.30;99.90;;;;;;5094161;28;20167;-54
2022/11/16 09:33:57;;;;;;;3.50;1.98;;;10.30;99.90;;;;;;5083684;28;20040;-53
2022/11/16 09:36:26;;;;;;;2.13;1.60;;;10.30;99.90;;;;;;5080106;28;20048;-53
2022/11/16 09:38:53;;;;;;;4.97;1.95;;;10.40;99.90;;;;;;5079813;28;20151;-51
2022/11/16 09:41:50;;;;;;;1.87;1.67;;;10.40;99.90;;;;;;5078515;28;20821;-53
2022/11/16 09:44:38;;;;;;;2.08;1.50;;;10.50;99.90;;;;;;5079730;28;20513;-52
2022/11/16 09:47:09;;;;;;;;;;;10.70;99.90;;;;;;5078142;28;20219;-53
2022/11/16 09:49:42;;;;;;;2.00;1.70;;;11.10;99.90;;;;;;5076830;28;19959;-53
2022/11/16 09:52:32;;;;;;;2.42;2.10;;;11.70;99.90;;;;;;5078013;28;20119;-49
2022/11/16 09:55:05;;;;;;;6.78;2.55;;;12.00;99.90;;;;;;5081938;28;20048;-49
2022/11/16 09:57:35;;;;;;;6.13;2.13;;;12.30;99.90;;;;;;5081122;28;20130;-50
2022/11/16 10:00:09;;;;;;;5.85;2.05;;;12.60;99.90;;;;;;5079066;28;20104;-54
2022/11/16 10:02:44;;;;;;;5.90;1.90;;;13.10;99.90;;;;;;5081487;28;20184;-52
2022/11/16 10:05:23;;;;;;;4.00;1.75;;;13.60;99.90;;;;;;5078718;28;20032;-52
2022/11/16 10:07:56;;;;;;;1.80;1.30;;;14.10;99.90;;;;;;5079319;28;20046;-54
2022/11/16 10:10:38;;;;;;;6.55;2.22;;;14.40;99.90;;;;;;5080196;28;20050;-56
2022/11/16 10:13:35;;;;;;;3.80;2.10;;;14.60;99.90;;;;;;5074547;28;20054;-48
2022/11/16 10:16:23;;;;;;;3.67;1.42;;;14.90;99.90;;;;;;5080400;28;20052;-52
2022/11/16 10:19:02;;;;;;;5.25;1.08;;;15.20;99.90;;;;;;5076791;28;20080;-50
2022/11/16 10:21:47;;;;;;;2.88;1.15;;;15.50;99.90;;;;;;5080443;28;20058;-53
2022/11/16 10:24:40;;;;;;;1.27;0.65;;;15.70;99.90;;;;;;5083360;28;20490;-52
2022/11/16 10:27:16;;;;;;;1.35;1.00;;;15.60;99.90;;;;;;5082486;28;20044;-53
2022/11/16 10:29:55;;;;;;;1.38;0.82;;;15.50;99.90;;;;;;5078220;28;20039;-60
2022/11/16 10:32:27;;;;;;;1.25;0.68;;;15.20;99.90;;;;;;5078909;28;20096;-61
2022/11/16 10:35:12;;;;;;;0.47;0.47;;;15.00;99.90;;;;;;5081605;28;20080;-52
2022/11/16 10:37:49;;;;;;;3.28;0.65;;;14.70;99.90;;;;;;5073246;28;20100;-53
2022/11/16 10:40:16;;;;;;;;;;;14.40;99.90;;;;;;5078473;28;20047;-53
2022/11/16 10:42:47;;;;;;;2.05;0.93;;;14.10;99.90;;;;;;5080606;28;19930;-53
2022/11/16 10:45:21;;;;;;;1.92;0.70;;;13.90;99.90;;;;;;5076986;28;20036;-53
2022/11/16 10:47:55;;;;;;;1.50;0.88;;;13.90;99.90;;;;;;5077019;28;20050;-54
2022/11/16 10:50:41;;;;;;;2.75;1.05;;;13.90;99.90;;;;;;5076557;28;20871;-51
2022/11/16 10:53:23;;;;;;;2.92;0.70;;;13.90;99.90;;;;;;5080517;28;20044;-51
2022/11/16 10:56:14;;;;;;;3.15;0.70;;;13.70;99.90;;;;;;5079001;28;20055;-53
2022/11/16 10:58:53;;;;;;;1.27;0.77;;;13.40;99.90;;;;;;5077904;28;20055;-51
2022/11/16 11:01:38;;;;;;;1.73;1.10;;;13.10;99.90;;;;;;5076603;28;20328;-49
2022/11/16 11:04:11;;;;;;;1.17;0.60;;;13.00;99.90;;;;;;5077714;28;20036;-51
2022/11/16 11:06:39;;;;;;;2.40;0.70;;;12.80;99.90;;;;;;5077170;28;20050;-52
2022/11/16 11:09:21;;;;;;;0.88;0.88;;;12.70;99.90;;;;;;5076478;28;20040;-54
2022/11/16 11:15:21;;;;;;;1.30;0.80;;;12.40;99.90;;;;;;5077307;28;20047;-53
2022/11/16 11:18:22;;;;;;;1.75;0.90;;;12.40;99.90;;;;;;5076853;28;20047;-53
2022/11/16 11:21:04;;;;;;;1.63;0.80;;;12.60;99.90;;;;;;5075098;28;20064;-51
2022/11/16 11:23:41;;;;;;;1.92;0.90;;;13.00;99.90;;;;;;5060035;28;20071;-53
2022/11/16 11:26:24;;;;;;;1.98;1.00;;;13.40;99.90;;;;;;5075219;28;20466;-53
2022/11/16 11:28:51;;;;;;;3.60;1.08;;;13.50;99.90;;;;;;5073538;28;20043;-53
2022/11/16 11:31:24;;;;;;;;;;;13.50;99.90;;;;;;5078004;28;20329;-53
2022/11/16 11:33:55;;;;;;;2.58;0.70;;;13.50;99.90;;;;;;5078893;28;19930;-52
2022/11/16 11:36:32;;;;;;;2.72;0.60;;;13.40;99.90;;;;;;5077328;28;20051;-52
2022/11/16 11:39:02;;;;;;;1.88;0.40;;;13.30;99.90;;;;;;5074134;28;20051;-52
2022/11/16 11:41:35;;;;;;;2.50;0.60;;;13.30;99.90;;;;;;5075035;28;20044;-49
2022/11/16 11:44:14;;;;;;;1.90;0.75;;;13.40;99.90;;;;;;5078182;28;20124;-50
2022/11/16 11:46:50;;;;;;;1.77;0.70;;;13.70;99.90;;;;;;5083295;28;20040;-49
2022/11/16 11:49:41;;;;;;;2.58;0.70;;;14.10;99.90;;;;;;5059607;28;20237;-50
2022/11/16 11:52:18;;;;;;;1.85;0.95;;;14.40;99.90;;;;;;5074310;28;20538;-52
2022/11/16 11:54:47;;;;;;;0.80;0.40;;;14.60;99.90;;;;;;5076740;28;20206;-55
2022/11/16 11:57:21;;;;;;;1.00;0.60;;;14.70;99.90;;;;;;5077012;28;20049;-52
2022/11/16 11:59:51;;;;;;;4.22;0.80;;;14.70;99.90;;;;;;5078261;28;20052;-53
2022/11/16 12:02:39;;;;;;;3.63;0.70;;;14.50;99.90;;;;;;5079013;28;20051;-50
2022/11/16 12:05:34;;;;;;;3.20;0.70;;;14.20;99.90;;;;;;5076935;28;20036;-51
2022/11/16 12:08:33;;;;;;;3.40;0.98;;;14.00;99.90;;;;;;5077592;28;20036;-53
2022/11/16 12:11:22;;;;;;;1.23;0.60;;;13.70;99.90;;;;;;5073106;28;20324;-54
2022/11/16 12:14:05;;;;;;;1.65;0.88;;;13.60;99.90;;;;;;5060293;28;20496;-54
2022/11/16 12:16:53;;;;;;;2.20;0.90;;;13.60;99.90;;;;;;5078589;28;20148;-53
2022/11/16 12:19:48;;;;;;;5.25;0.57;;;13.50;99.90;;;;;;5075860;28;20044;-55
2022/11/16 12:23:02;;;;;;;1.15;0.60;;;13.40;99.90;;;;;;5077127;28;20145;-53
2022/11/16 12:25:38;;;;;;;2.15;0.98;;;13.20;99.90;;;;;;5067440;28;20126;-53
2022/11/16 12:28:26;;;;;;;0.95;0.70;;;13.00;99.90;;;;;;5072934;28;20343;-54
2022/11/16 12:31:35;;;;;;;1.30;0.75;;;12.80;99.90;;;;;;5078920;28;20116;-51
2022/11/16 12:34:08;;;;;;;1.08;0.77;;;12.70;99.90;;;;;;5055553;28;20060;-53
2022/11/16 12:36:53;;;;;;;1.23;0.80;;;12.70;99.90;;;;;;5075638;28;20166;-55
2022/11/16 12:39:32;;;;;;;3.00;0.85;;;12.80;99.90;;;;;;5073979;28;20117;-56
2022/11/16 12:42:14;;;;;;;2.92;0.82;;;13.00;99.90;;;;;;5072622;28;20562;-52
2022/11/16 12:45:03;;;;;;;2.25;0.70;;;13.20;99.90;;;;;;5076056;28;20506;-52
2022/11/16 12:47:41;;;;;;;3.13;1.42;;;13.20;99.90;;;;;;5077859;28;20040;-50
2022/11/16 12:50:39;;;;;;;4.32;0.90;;;13.20;99.90;;;;;;5074969;28;20461;-51
2022/11/16 12:53:42;;;;;;;0.93;0.57;;;13.30;99.90;;;;;;5076740;28;20135;-52
2022/11/16 12:56:28;;;;;;;1.67;0.80;;;13.50;99.90;;;;;;5079119;28;20048;-51
2022/11/16 12:59:17;;;;;;;1.35;0.65;;;13.70;99.90;;;;;;5073797;28;20105;-55
2022/11/16 13:02:11;;;;;;;1.95;0.70;;;13.70;99.90;;;;;;5076746;28;20061;-53
2022/11/16 13:05:22;;;;;;;4.15;0.70;;;13.60;99.90;;;;;;5075700;28;20493;-54
2022/11/16 13:07:58;;;;;;;0.80;0.75;;;13.40;99.90;;;;;;5029027;28;20087;-54
2022/11/16 13:10:41;;;;;;;1.50;0.52;;;13.20;99.90;;;;;;5075525;28;20048;-54
2022/11/16 13:13:20;;;;;;;3.05;0.82;;;13.10;99.90;;;;;;5077780;28;20135;-53
2022/11/16 13:16:05;;;;;;;0.82;0.70;;;13.00;99.90;;;;;;5083620;28;20046;-53
2022/11/16 13:18:34;;;;;;;2.22;1.08;;;13.00;99.90;;;;;;5081244;28;20405;-55
2022/11/16 13:21:09;;;;;;;2.80;1.00;;;12.90;99.90;;;;;;5082550;28;20048;-53
2022/11/16 13:23:51;;;;;;;1.52;0.80;;;12.80;99.90;;;;;;5082555;28;20052;-54
2022/11/16 13:26:49;;;;;;;0.93;0.82;;;12.70;99.90;;;;;;5080985;28;20518;-55
2022/11/16 13:29:29;;;;;;;2.42;1.20;;;12.70;99.90;;;;;;5060574;28;20289;-55
2022/11/16 13:32:31;;;;;;;2.33;1.20;;;12.90;99.90;;;;;;5082516;28;20477;-55
2022/11/16 13:35:00;;;;;;;1.35;1.05;;;13.30;99.90;;;;;;5080925;28;20047;-55
2022/11/16 13:37:33;;;;;;;1.50;1.10;;;13.60;99.90;;;;;;5084532;28;20036;-54
2022/11/16 13:39:59;;;;;;;3.83;1.35;;;14.00;99.90;;;;;;5079764;28;20118;-54
2022/11/16 13:42:29;;;;;;;3.50;1.08;;;14.30;99.90;;;;;;5078109;28;20086;-54
2022/11/16 13:45:16;;;;;;;2.75;0.80;;;14.50;99.90;;;;;;5079842;28;20047;-53
2022/11/16 13:47:49;;;;;;;1.85;1.00;;;14.60;99.90;;;;;;5080641;28;20035;-56
2022/11/16 13:50:22;;;;;;;3.63;1.33;;;14.60;99.90;;;;;;5081153;28;20302;-55
2022/11/16 13:52:58;;;;;;;2.78;1.55;;;14.80;99.90;;;;;;5085342;28;20066;-53
2022/11/16 13:55:47;;;;;;;6.53;1.67;;;15.00;99.90;;;;;;5081882;28;20132;-55
2022/11/16 13:58:21;;;;;;;3.25;1.20;;;15.20;99.90;;;;;;5080472;28;20056;-55
2022/11/16 14:01:01;;;;;;;4.53;1.13;;;15.30;99.90;;;;;;5082065;28;20074;-54
2022/11/16 14:03:37;;;;;;;1.95;0.88;;;15.60;99.90;;;;;;5081091;28;20195;-54
2022/11/16 14:06:20;;;;;;;2.55;0.80;;;15.90;99.90;;;;;;5079426;28;20417;-54
2022/11/16 14:08:57;;;;;;;1.77;0.85;;;16.10;99.90;;;;;;5075195;28;20112;-53
2022/11/16 14:11:29;;;;;;;2.00;1.05;;;16.20;99.90;;;;;;5080591;28;20615;-55
2022/11/16 14:14:00;;;;;;;3.33;1.13;;;16.30;99.90;;;;;;5076145;28;20340;-55
2022/11/16 14:16:27;;;;;;;2.50;1.30;;;16.40;98.60;;;;;;5086134;28;20051;-53